SAS726 ENGM-ENBR
Flight info
| Callsign | SAS726 |
|---|---|
| Flight time | 0h 51m |
| Altitude | 16000 |
| Route | ATLAP7D ATLAP DCT AGEKU DCT PESUR PESUR3N |
| Aircraft | AT76/M-SDFGIRY/S |
Departure
| Time | 2026-05-01 11:26 |
|---|---|
| Airport | Oslo-Gardermoen International Airport (ENGM) |
Arrival
| Time | 2026-05-01 12:18 |
|---|---|
| Airport | Bergen Airport, Flesland (ENBR) |
| Time | Latitude | Longitude | Altitude | Speed | Heading |
|---|---|---|---|---|---|
| 2026-05-01 11:13 | 60.19864 | 11.10311 | 671 ft | 0 kts | 159° |
| 2026-05-01 11:20 | 60.19862 | 11.10308 | 677 ft | 1 kts | 198° |
| 2026-05-01 11:21 | 60.19870 | 11.10299 | 677 ft | 4 kts | 1° |
| 2026-05-01 11:21 | 60.19937 | 11.10279 | 679 ft | 12 kts | 316° |
| 2026-05-01 11:21 | 60.19955 | 11.10164 | 675 ft | 14 kts | 282° |
| 2026-05-01 11:21 | 60.19979 | 11.09963 | 677 ft | 16 kts | 285° |
| 2026-05-01 11:22 | 60.20021 | 11.09678 | 676 ft | 16 kts | 286° |
| 2026-05-01 11:22 | 60.20041 | 11.09530 | 674 ft | 17 kts | 285° |
| 2026-05-01 11:22 | 60.20074 | 11.09301 | 672 ft | 17 kts | 287° |
| 2026-05-01 11:22 | 60.20105 | 11.09074 | 674 ft | 17 kts | 284° |
| 2026-05-01 11:23 | 60.20137 | 11.08864 | 673 ft | 15 kts | 288° |
| 2026-05-01 11:23 | 60.20207 | 11.08751 | 673 ft | 16 kts | 13° |
| 2026-05-01 11:23 | 60.20314 | 11.08810 | 674 ft | 16 kts | 16° |
| 2026-05-01 11:23 | 60.20414 | 11.08868 | 675 ft | 11 kts | 15° |
| 2026-05-01 11:24 | 60.20496 | 11.08914 | 675 ft | 14 kts | 16° |
| 2026-05-01 11:24 | 60.20593 | 11.08973 | 676 ft | 15 kts | 17° |
| 2026-05-01 11:24 | 60.20689 | 11.08734 | 675 ft | 13 kts | 273° |
| 2026-05-01 11:25 | 60.20644 | 11.08607 | 675 ft | 10 kts | 198° |
| 2026-05-01 11:25 | 60.20087 | 11.08289 | 671 ft | 92 kts | 195° |
| 2026-05-01 11:25 | 60.19359 | 11.07847 | 845 ft | 118 kts | 193° |
| 2026-05-01 11:26 | 60.18505 | 11.07433 | 1224 ft | 134 kts | 190° |
| 2026-05-01 11:26 | 60.17020 | 11.05261 | 2466 ft | 140 kts | 230° |
| 2026-05-01 11:26 | 60.16416 | 11.03671 | 3106 ft | 145 kts | 237° |
| 2026-05-01 11:27 | 60.15886 | 11.01936 | 3733 ft | 148 kts | 241° |
| 2026-05-01 11:27 | 60.15370 | 11.00070 | 4293 ft | 156 kts | 243° |
| 2026-05-01 11:27 | 60.14852 | 10.98118 | 4787 ft | 163 kts | 244° |
| 2026-05-01 11:27 | 60.14304 | 10.96090 | 5301 ft | 167 kts | 244° |
| 2026-05-01 11:28 | 60.13884 | 10.93951 | 5812 ft | 165 kts | 266° |
| 2026-05-01 11:28 | 60.13896 | 10.91645 | 6331 ft | 169 kts | 269° |
| 2026-05-01 11:28 | 60.13895 | 10.89248 | 6879 ft | 173 kts | 267° |
| 2026-05-01 11:29 | 60.13791 | 10.84124 | 7548 ft | 198 kts | 265° |
| 2026-05-01 11:29 | 60.13697 | 10.81280 | 7852 ft | 209 kts | 264° |
| 2026-05-01 11:29 | 60.13482 | 10.75274 | 8377 ft | 224 kts | 264° |
| 2026-05-01 11:30 | 60.13359 | 10.72110 | 8603 ft | 230 kts | 264° |
| 2026-05-01 11:30 | 60.13230 | 10.68887 | 8862 ft | 234 kts | 264° |
| 2026-05-01 11:30 | 60.13182 | 10.65649 | 9115 ft | 234 kts | 275° |
| 2026-05-01 11:30 | 60.13943 | 10.62706 | 9411 ft | 251 kts | 309° |
| 2026-05-01 11:31 | 60.15416 | 10.60618 | 9672 ft | 264 kts | 324° |
| 2026-05-01 11:31 | 60.17085 | 10.58949 | 9938 ft | 270 kts | 328° |
| 2026-05-01 11:31 | 60.18805 | 10.57359 | 10181 ft | 272 kts | 328° |
| 2026-05-01 11:31 | 60.20508 | 10.55767 | 10416 ft | 273 kts | 327° |
| 2026-05-01 11:32 | 60.22219 | 10.54049 | 10649 ft | 271 kts | 323° |
| 2026-05-01 11:32 | 60.23502 | 10.51506 | 10887 ft | 253 kts | 297° |
| 2026-05-01 11:32 | 60.24351 | 10.48457 | 11131 ft | 251 kts | 290° |
| 2026-05-01 11:32 | 60.24967 | 10.45175 | 11385 ft | 247 kts | 282° |
| 2026-05-01 11:33 | 60.25424 | 10.41820 | 11629 ft | 247 kts | 280° |
| 2026-05-01 11:33 | 60.25849 | 10.38508 | 11863 ft | 247 kts | 279° |
| 2026-05-01 11:33 | 60.26285 | 10.35150 | 12092 ft | 246 kts | 280° |
| 2026-05-01 11:33 | 60.26743 | 10.31812 | 12364 ft | 246 kts | 281° |
| 2026-05-01 11:34 | 60.27210 | 10.28517 | 12634 ft | 246 kts | 281° |
| 2026-05-01 11:34 | 60.27687 | 10.25175 | 12897 ft | 247 kts | 281° |
| 2026-05-01 11:34 | 60.28157 | 10.21884 | 13154 ft | 248 kts | 281° |
| 2026-05-01 11:34 | 60.28628 | 10.18529 | 13417 ft | 248 kts | 281° |
| 2026-05-01 11:35 | 60.29096 | 10.15168 | 13663 ft | 247 kts | 279° |
| 2026-05-01 11:35 | 60.29053 | 10.11820 | 13909 ft | 239 kts | 249° |
| 2026-05-01 11:35 | 60.28241 | 10.08954 | 14156 ft | 239 kts | 236° |
| 2026-05-01 11:35 | 60.27164 | 10.06396 | 14387 ft | 239 kts | 230° |
| 2026-05-01 11:36 | 60.26000 | 10.04025 | 14638 ft | 240 kts | 228° |
| 2026-05-01 11:36 | 60.24806 | 10.01641 | 14866 ft | 240 kts | 229° |
| 2026-05-01 11:36 | 60.23638 | 9.99282 | 15087 ft | 239 kts | 229° |
| 2026-05-01 11:36 | 60.22486 | 9.96860 | 15339 ft | 239 kts | 230° |
| 2026-05-01 11:37 | 60.21339 | 9.94434 | 15548 ft | 238 kts | 230° |
| 2026-05-01 11:37 | 60.20202 | 9.92025 | 15757 ft | 236 kts | 230° |
| 2026-05-01 11:37 | 60.19087 | 9.89658 | 16003 ft | 236 kts | 230° |
| 2026-05-01 11:37 | 60.17939 | 9.87227 | 16119 ft | 242 kts | 230° |
| 2026-05-01 11:38 | 60.16755 | 9.84719 | 16162 ft | 249 kts | 230° |
| 2026-05-01 11:38 | 60.15562 | 9.82201 | 16174 ft | 253 kts | 230° |
| 2026-05-01 11:38 | 60.14689 | 9.79204 | 16199 ft | 253 kts | 256° |
| 2026-05-01 11:38 | 60.14649 | 9.75648 | 16200 ft | 261 kts | 271° |
| 2026-05-01 11:39 | 60.14865 | 9.72020 | 16199 ft | 260 kts | 273° |
| 2026-05-01 11:39 | 60.15102 | 9.68429 | 16199 ft | 257 kts | 273° |
| 2026-05-01 11:39 | 60.15295 | 9.64884 | 16198 ft | 254 kts | 271° |
| 2026-05-01 11:39 | 60.15439 | 9.61413 | 16199 ft | 251 kts | 270° |
| 2026-05-01 11:40 | 60.15578 | 9.57902 | 16189 ft | 250 kts | 271° |
| 2026-05-01 11:40 | 60.15720 | 9.54422 | 16207 ft | 248 kts | 271° |
| 2026-05-01 11:40 | 60.15860 | 9.50995 | 16205 ft | 248 kts | 271° |
| 2026-05-01 11:40 | 60.15999 | 9.47526 | 16206 ft | 248 kts | 270° |
| 2026-05-01 11:41 | 60.16136 | 9.44106 | 16210 ft | 248 kts | 270° |
| 2026-05-01 11:41 | 60.16272 | 9.40633 | 16193 ft | 248 kts | 270° |
| 2026-05-01 11:41 | 60.16409 | 9.37172 | 16202 ft | 248 kts | 270° |
| 2026-05-01 11:41 | 60.16544 | 9.33747 | 16198 ft | 248 kts | 270° |
| 2026-05-01 11:42 | 60.16674 | 9.30299 | 16204 ft | 247 kts | 270° |
| 2026-05-01 11:42 | 60.16806 | 9.26839 | 16215 ft | 247 kts | 270° |
| 2026-05-01 11:42 | 60.16938 | 9.23437 | 16216 ft | 247 kts | 270° |
| 2026-05-01 11:42 | 60.17069 | 9.19983 | 16209 ft | 247 kts | 270° |
| 2026-05-01 11:43 | 60.17199 | 9.16533 | 16219 ft | 248 kts | 270° |
| 2026-05-01 11:43 | 60.17329 | 9.13078 | 16209 ft | 248 kts | 270° |
| 2026-05-01 11:43 | 60.17459 | 9.09607 | 16205 ft | 249 kts | 270° |
| 2026-05-01 11:44 | 60.17713 | 9.02720 | 16240 ft | 249 kts | 270° |
| 2026-05-01 11:44 | 60.17840 | 8.99233 | 16211 ft | 250 kts | 270° |
| 2026-05-01 11:44 | 60.17965 | 8.95735 | 16217 ft | 250 kts | 270° |
| 2026-05-01 11:44 | 60.18089 | 8.92299 | 16230 ft | 249 kts | 270° |
| 2026-05-01 11:45 | 60.18214 | 8.88808 | 16235 ft | 250 kts | 270° |
| 2026-05-01 11:45 | 60.18333 | 8.85371 | 16231 ft | 249 kts | 270° |
| 2026-05-01 11:45 | 60.18456 | 8.81889 | 16232 ft | 248 kts | 270° |
| 2026-05-01 11:45 | 60.18576 | 8.78417 | 16239 ft | 248 kts | 270° |
| 2026-05-01 11:46 | 60.18696 | 8.74985 | 16233 ft | 249 kts | 270° |
| 2026-05-01 11:46 | 60.18816 | 8.71513 | 16236 ft | 248 kts | 270° |
| 2026-05-01 11:46 | 60.18935 | 8.68043 | 16247 ft | 248 kts | 270° |
| 2026-05-01 11:46 | 60.19051 | 8.64564 | 16247 ft | 249 kts | 270° |
| 2026-05-01 11:47 | 60.19168 | 8.61088 | 16253 ft | 249 kts | 270° |
| 2026-05-01 11:47 | 60.19282 | 8.57638 | 16249 ft | 250 kts | 270° |
| 2026-05-01 11:47 | 60.19397 | 8.54140 | 16234 ft | 250 kts | 270° |
| 2026-05-01 11:47 | 60.19512 | 8.50640 | 16248 ft | 250 kts | 270° |
| 2026-05-01 11:48 | 60.19625 | 8.47174 | 16247 ft | 249 kts | 270° |
| 2026-05-01 11:48 | 60.19738 | 8.43693 | 16261 ft | 249 kts | 270° |
| 2026-05-01 11:48 | 60.19844 | 8.40243 | 16257 ft | 250 kts | 270° |
| 2026-05-01 11:48 | 60.19954 | 8.36739 | 16256 ft | 250 kts | 270° |
| 2026-05-01 11:49 | 60.20067 | 8.33241 | 16257 ft | 250 kts | 270° |
| 2026-05-01 11:49 | 60.20179 | 8.29795 | 16251 ft | 250 kts | 270° |
| 2026-05-01 11:49 | 60.20284 | 8.26293 | 16263 ft | 249 kts | 269° |
| 2026-05-01 11:49 | 60.20382 | 8.22827 | 16259 ft | 250 kts | 270° |
| 2026-05-01 11:50 | 60.20487 | 8.19333 | 16263 ft | 250 kts | 270° |
| 2026-05-01 11:50 | 60.20594 | 8.15836 | 16269 ft | 250 kts | 270° |
| 2026-05-01 11:50 | 60.20694 | 8.12361 | 16256 ft | 250 kts | 270° |
| 2026-05-01 11:50 | 60.20799 | 8.08876 | 16270 ft | 250 kts | 270° |
| 2026-05-01 11:51 | 60.20904 | 8.05354 | 16277 ft | 251 kts | 270° |
| 2026-05-01 11:51 | 60.21007 | 8.01839 | 16257 ft | 250 kts | 270° |
| 2026-05-01 11:51 | 60.21108 | 7.98390 | 16271 ft | 250 kts | 270° |
| 2026-05-01 11:51 | 60.21208 | 7.94884 | 16273 ft | 251 kts | 270° |
| 2026-05-01 11:52 | 60.21308 | 7.91376 | 16274 ft | 251 kts | 270° |
| 2026-05-01 11:52 | 60.21405 | 7.87898 | 16267 ft | 251 kts | 270° |
| 2026-05-01 11:52 | 60.21501 | 7.84385 | 16269 ft | 250 kts | 270° |
| 2026-05-01 11:52 | 60.21596 | 7.80890 | 16275 ft | 250 kts | 270° |
| 2026-05-01 11:53 | 60.21688 | 7.77405 | 16275 ft | 251 kts | 269° |
| 2026-05-01 11:53 | 60.21779 | 7.73888 | 16274 ft | 251 kts | 269° |
| 2026-05-01 11:53 | 60.21869 | 7.70423 | 16289 ft | 251 kts | 269° |
| 2026-05-01 11:53 | 60.21955 | 7.66898 | 16268 ft | 251 kts | 269° |
| 2026-05-01 11:54 | 60.22027 | 7.63382 | 16264 ft | 251 kts | 269° |
| 2026-05-01 11:54 | 60.22094 | 7.59924 | 16272 ft | 250 kts | 269° |
| 2026-05-01 11:54 | 60.22178 | 7.56419 | 16271 ft | 250 kts | 270° |
| 2026-05-01 11:54 | 60.22267 | 7.52904 | 16270 ft | 250 kts | 270° |
| 2026-05-01 11:55 | 60.22353 | 7.49446 | 16274 ft | 250 kts | 269° |
| 2026-05-01 11:55 | 60.22441 | 7.45940 | 16269 ft | 250 kts | 269° |
| 2026-05-01 11:55 | 60.22526 | 7.42444 | 16274 ft | 250 kts | 269° |
| 2026-05-01 11:55 | 60.22610 | 7.38949 | 16266 ft | 250 kts | 269° |
| 2026-05-01 11:56 | 60.22694 | 7.35476 | 16267 ft | 250 kts | 269° |
| 2026-05-01 11:56 | 60.22776 | 7.31959 | 16270 ft | 251 kts | 269° |
| 2026-05-01 11:56 | 60.22857 | 7.28492 | 16261 ft | 250 kts | 269° |
| 2026-05-01 11:56 | 60.22937 | 7.24993 | 16261 ft | 250 kts | 269° |
| 2026-05-01 11:57 | 60.23017 | 7.21487 | 16266 ft | 249 kts | 269° |
| 2026-05-01 11:57 | 60.23095 | 7.18003 | 16264 ft | 250 kts | 269° |
| 2026-05-01 11:57 | 60.23174 | 7.14503 | 16256 ft | 250 kts | 269° |
| 2026-05-01 11:57 | 60.23251 | 7.11006 | 16254 ft | 249 kts | 269° |
| 2026-05-01 11:58 | 60.23327 | 7.07518 | 16251 ft | 249 kts | 269° |
| 2026-05-01 11:58 | 60.23402 | 7.04075 | 16255 ft | 249 kts | 269° |
| 2026-05-01 11:58 | 60.23551 | 6.97088 | 16255 ft | 249 kts | 269° |
| 2026-05-01 11:59 | 60.23623 | 6.93642 | 16245 ft | 249 kts | 269° |
| 2026-05-01 11:59 | 60.23695 | 6.90154 | 16233 ft | 249 kts | 269° |
| 2026-05-01 11:59 | 60.23767 | 6.86658 | 16243 ft | 248 kts | 269° |
| 2026-05-01 12:00 | 60.23907 | 6.79763 | 16233 ft | 247 kts | 268° |
| 2026-05-01 12:00 | 60.23972 | 6.76280 | 16154 ft | 250 kts | 269° |
| 2026-05-01 12:00 | 60.24109 | 6.69265 | 15823 ft | 253 kts | 268° |
| 2026-05-01 12:01 | 60.24175 | 6.65723 | 15659 ft | 253 kts | 269° |
| 2026-05-01 12:01 | 60.24244 | 6.62179 | 15601 ft | 252 kts | 268° |
| 2026-05-01 12:01 | 60.24308 | 6.58656 | 15451 ft | 250 kts | 269° |
| 2026-05-01 12:01 | 60.24831 | 6.55287 | 15307 ft | 259 kts | 292° |
| 2026-05-01 12:02 | 60.25758 | 6.52145 | 15178 ft | 263 kts | 294° |
| 2026-05-01 12:02 | 60.26681 | 6.48987 | 15028 ft | 267 kts | 292° |
| 2026-05-01 12:02 | 60.27560 | 6.45646 | 14798 ft | 271 kts | 290° |
| 2026-05-01 12:02 | 60.28395 | 6.42210 | 14581 ft | 273 kts | 289° |
| 2026-05-01 12:03 | 60.29218 | 6.38741 | 14339 ft | 274 kts | 289° |
| 2026-05-01 12:03 | 60.30056 | 6.35280 | 14083 ft | 275 kts | 289° |
| 2026-05-01 12:03 | 60.30907 | 6.31808 | 13820 ft | 275 kts | 288° |
| 2026-05-01 12:03 | 60.31750 | 6.28345 | 13526 ft | 274 kts | 289° |
| 2026-05-01 12:04 | 60.32576 | 6.24935 | 13222 ft | 273 kts | 289° |
| 2026-05-01 12:04 | 60.33409 | 6.21493 | 12917 ft | 272 kts | 288° |
| 2026-05-01 12:04 | 60.34234 | 6.18063 | 12642 ft | 271 kts | 288° |
| 2026-05-01 12:04 | 60.35052 | 6.14637 | 12311 ft | 270 kts | 287° |
| 2026-05-01 12:05 | 60.35864 | 6.11207 | 11986 ft | 270 kts | 288° |
| 2026-05-01 12:05 | 60.37482 | 6.04425 | 11430 ft | 263 kts | 288° |
| 2026-05-01 12:05 | 60.38277 | 6.01170 | 11190 ft | 259 kts | 288° |
| 2026-05-01 12:06 | 60.39071 | 5.97892 | 10773 ft | 259 kts | 288° |
| 2026-05-01 12:06 | 60.39854 | 5.94629 | 10308 ft | 255 kts | 288° |
| 2026-05-01 12:06 | 60.40617 | 5.91442 | 9786 ft | 253 kts | 287° |
| 2026-05-01 12:06 | 60.41375 | 5.88242 | 9288 ft | 251 kts | 287° |
| 2026-05-01 12:07 | 60.42130 | 5.85057 | 8809 ft | 250 kts | 288° |
| 2026-05-01 12:07 | 60.42889 | 5.81879 | 8271 ft | 249 kts | 288° |
| 2026-05-01 12:07 | 60.43639 | 5.78713 | 7772 ft | 248 kts | 288° |
| 2026-05-01 12:07 | 60.44383 | 5.75568 | 7304 ft | 246 kts | 287° |
| 2026-05-01 12:08 | 60.44888 | 5.72376 | 6861 ft | 238 kts | 276° |
| 2026-05-01 12:08 | 60.45257 | 5.69092 | 6563 ft | 237 kts | 275° |
| 2026-05-01 12:08 | 60.45620 | 5.65881 | 6301 ft | 235 kts | 275° |
| 2026-05-01 12:08 | 60.46018 | 5.62615 | 6068 ft | 242 kts | 278° |
| 2026-05-01 12:09 | 60.46473 | 5.59324 | 5863 ft | 247 kts | 279° |
| 2026-05-01 12:09 | 60.46953 | 5.55957 | 5649 ft | 249 kts | 279° |
| 2026-05-01 12:09 | 60.47437 | 5.52636 | 5483 ft | 242 kts | 280° |
| 2026-05-01 12:09 | 60.47912 | 5.49385 | 5276 ft | 237 kts | 279° |
| 2026-05-01 12:10 | 60.48363 | 5.46229 | 5125 ft | 234 kts | 278° |
| 2026-05-01 12:10 | 60.49228 | 5.39894 | 4702 ft | 233 kts | 278° |
| 2026-05-01 12:10 | 60.49664 | 5.36670 | 4380 ft | 237 kts | 278° |
| 2026-05-01 12:11 | 60.50519 | 5.30368 | 3657 ft | 220 kts | 276° |
| 2026-05-01 12:11 | 60.50488 | 5.27514 | 3360 ft | 192 kts | 244° |
| 2026-05-01 12:11 | 60.50020 | 5.25069 | 3169 ft | 179 kts | 237° |
| 2026-05-01 12:12 | 60.49491 | 5.22942 | 3069 ft | 161 kts | 234° |
| 2026-05-01 12:12 | 60.48941 | 5.20991 | 3016 ft | 149 kts | 233° |
| 2026-05-01 12:12 | 60.48381 | 5.19401 | 3030 ft | 130 kts | 218° |
| 2026-05-01 12:12 | 60.47900 | 5.18564 | 3021 ft | 147 kts | 214° |
| 2026-05-01 12:13 | 60.47041 | 5.17203 | 2984 ft | 158 kts | 214° |
| 2026-05-01 12:13 | 60.46121 | 5.16121 | 2995 ft | 155 kts | 189° |
| 2026-05-01 12:13 | 60.45024 | 5.16500 | 3078 ft | 164 kts | 171° |
| 2026-05-01 12:13 | 60.43895 | 5.16889 | 2944 ft | 157 kts | 175° |
| 2026-05-01 12:14 | 60.42866 | 5.17198 | 2771 ft | 148 kts | 174° |
| 2026-05-01 12:14 | 60.41844 | 5.17576 | 2527 ft | 146 kts | 173° |
| 2026-05-01 12:14 | 60.40857 | 5.17941 | 2297 ft | 145 kts | 174° |
| 2026-05-01 12:14 | 60.39840 | 5.18271 | 2110 ft | 153 kts | 173° |
| 2026-05-01 12:15 | 60.38787 | 5.18639 | 1889 ft | 153 kts | 174° |
| 2026-05-01 12:15 | 60.37735 | 5.18974 | 1677 ft | 152 kts | 174° |
| 2026-05-01 12:15 | 60.36714 | 5.19338 | 1498 ft | 143 kts | 173° |
| 2026-05-01 12:15 | 60.35766 | 5.19654 | 1300 ft | 132 kts | 174° |
| 2026-05-01 12:16 | 60.34913 | 5.19929 | 1125 ft | 116 kts | 173° |
| 2026-05-01 12:16 | 60.34189 | 5.20193 | 958 ft | 97 kts | 173° |
| 2026-05-01 12:16 | 60.33457 | 5.20410 | 846 ft | 110 kts | 172° |
| 2026-05-01 12:16 | 60.32737 | 5.20646 | 711 ft | 100 kts | 172° |
| 2026-05-01 12:17 | 60.32078 | 5.20893 | 545 ft | 93 kts | 171° |
| 2026-05-01 12:17 | 60.31455 | 5.21117 | 388 ft | 89 kts | 171° |
| 2026-05-01 12:17 | 60.30821 | 5.21314 | 334 ft | 100 kts | 172° |
| 2026-05-01 12:17 | 60.30143 | 5.21538 | 262 ft | 93 kts | 168° |
| 2026-05-01 12:18 | 60.29558 | 5.21746 | 165 ft | 78 kts | 171° |
| 2026-05-01 12:18 | 60.29249 | 5.21848 | 160 ft | 23 kts | 171° |
| 2026-05-01 12:18 | 60.29118 | 5.21891 | 161 ft | 16 kts | 171° |
| 2026-05-01 12:18 | 60.29014 | 5.21925 | 158 ft | 14 kts | 171° |
| 2026-05-01 12:19 | 60.28924 | 5.21978 | 158 ft | 14 kts | 135° |
| 2026-05-01 12:19 | 60.28921 | 5.22151 | 158 ft | 11 kts | 81° |
| 2026-05-01 12:19 | 60.28925 | 5.22188 | 158 ft | 0 kts | 79° |
| 2026-05-01 12:20 | 60.28925 | 5.22195 | 158 ft | 3 kts | 79° |
| 2026-05-01 12:20 | 60.28920 | 5.22252 | 158 ft | 4 kts | 127° |
| 2026-05-01 12:21 | 60.28896 | 5.22285 | 158 ft | 7 kts | 160° |
| 2026-05-01 12:21 | 60.28837 | 5.22309 | 157 ft | 10 kts | 170° |
| 2026-05-01 12:21 | 60.28760 | 5.22333 | 157 ft | 10 kts | 171° |
| 2026-05-01 12:21 | 60.28707 | 5.22358 | 156 ft | 6 kts | 150° |
| 2026-05-01 12:22 | 60.28691 | 5.22425 | 156 ft | 7 kts | 86° |
| 2026-05-01 12:22 | 60.28719 | 5.22559 | 156 ft | 12 kts | 73° |
| 2026-05-01 12:22 | 60.28771 | 5.22672 | 157 ft | 9 kts | 15° |
| 2026-05-01 12:22 | 60.28808 | 5.22685 | 157 ft | 5 kts | 12° |
| 2026-05-01 12:23 | 60.28813 | 5.22686 | 157 ft | 0 kts | 9° |